Time;durP1;ratioP1;P1;durP2;ratioP2;P2;SDS_P1;SDS_P2;PMS_P1;PMS_P2;Temp;Humidity;BMP_temperature;BMP_pressure;BME280_temperature;BME280_humidity;BME280_pressure;Samples;Min_cycle;Max_cycle;Signal;HPM_P1;HPM_P2
2023/12/02 00:00:25;;;;;;;3.20;3.00;;;4.90;99.90;;;;;;5079890;28;20198;-76
2023/12/02 00:02:53;;;;;;;2.97;2.88;;;5.00;99.90;;;;;;5080995;28;20224;-75
2023/12/02 00:05:20;;;;;;;3.15;2.97;;;5.00;99.90;;;;;;5079818;28;20206;-76
2023/12/02 00:07:48;;;;;;;3.33;3.13;;;5.00;99.90;;;;;;5081801;28;20272;-76
2023/12/02 00:10:16;;;;;;;5.53;5.13;;;5.10;99.90;;;;;;5081066;28;20206;-76
2023/12/02 00:12:43;;;;;;;6.82;6.13;;;5.10;99.90;;;;;;5078919;28;20214;-76
2023/12/02 00:15:10;;;;;;;6.30;5.70;;;5.10;99.90;;;;;;5081135;28;20205;-75
2023/12/02 00:17:37;;;;;;;5.95;5.40;;;5.00;99.90;;;;;;5082698;28;21106;-77
2023/12/02 00:20:05;;;;;;;5.72;5.22;;;5.10;99.90;;;;;;5078025;28;20194;-77
2023/12/02 00:22:32;;;;;;;4.85;4.45;;;5.10;99.90;;;;;;5081171;28;20233;-76
2023/12/02 00:25:01;;;;;;;4.93;4.53;;;5.10;99.90;;;;;;5079181;28;20208;-76
2023/12/02 00:27:28;;;;;;;4.25;3.88;;;5.20;99.90;;;;;;5078156;28;20272;-78
2023/12/02 00:29:55;;;;;;;3.60;3.40;;;5.20;99.90;;;;;;5077418;28;20228;-76
2023/12/02 00:32:23;;;;;;;3.42;3.22;;;5.20;99.90;;;;;;5080497;28;20217;-76
2023/12/02 00:34:50;;;;;;;3.17;2.97;;;5.30;99.90;;;;;;5080176;28;20201;-75
2023/12/02 00:37:17;;;;;;;3.72;3.47;;;5.30;99.90;;;;;;5078317;28;20203;-77
2023/12/02 00:39:44;;;;;;;3.15;2.95;;;5.30;99.90;;;;;;5079193;28;20209;-77
2023/12/02 00:42:12;;;;;;;3.40;3.20;;;5.30;99.90;;;;;;5080497;28;20226;-76
2023/12/02 00:44:40;;;;;;;2.42;2.33;;;5.40;99.90;;;;;;5078648;28;20201;-75
2023/12/02 00:47:07;;;;;;;2.90;2.80;;;5.40;99.90;;;;;;5082074;28;20216;-77
2023/12/02 00:49:34;;;;;;;3.25;3.05;;;5.40;99.90;;;;;;5079845;28;20224;-76
2023/12/02 00:52:01;;;;;;;3.20;3.00;;;5.40;99.90;;;;;;5081486;28;20221;-76
2023/12/02 00:54:28;;;;;;;3.42;3.22;;;5.40;99.90;;;;;;5079285;28;20197;-76
2023/12/02 00:56:54;;;;;;;3.22;3.13;;;5.40;99.90;;;;;;5080385;28;20201;-76
2023/12/02 00:59:22;;;;;;;17.13;4.35;;;5.40;99.90;;;;;;5077487;28;20235;-76
2023/12/02 01:01:49;;;;;;;4.22;3.83;;;5.40;99.90;;;;;;5076019;28;20754;-76
2023/12/02 01:04:16;;;;;;;3.80;3.60;;;5.40;99.90;;;;;;5077801;28;20621;-76
2023/12/02 01:06:43;;;;;;;3.60;3.40;;;5.40;99.90;;;;;;5079471;28;20615;-76
2023/12/02 01:09:10;;;;;;;3.20;3.00;;;5.40;99.90;;;;;;5080217;28;20198;-76
2023/12/02 01:11:38;;;;;;;2.80;2.70;;;5.40;99.90;;;;;;5080252;28;20220;-76
2023/12/02 01:14:05;;;;;;;2.97;2.88;;;5.50;99.90;;;;;;5081397;28;20202;-76
2023/12/02 01:16:34;;;;;;;2.80;2.70;;;5.50;99.90;;;;;;5079388;28;20688;-78
2023/12/02 01:19:01;;;;;;;2.70;2.60;;;5.50;99.90;;;;;;5080429;28;20194;-77
2023/12/02 01:21:28;;;;;;;2.63;2.53;;;5.50;99.90;;;;;;5079044;28;20217;-73
2023/12/02 01:23:55;;;;;;;2.40;2.30;;;5.60;99.90;;;;;;5079907;28;20218;-73
2023/12/02 01:26:23;;;;;;;2.70;2.60;;;5.60;99.90;;;;;;5080310;28;20298;-76
2023/12/02 01:28:50;;;;;;;2.10;2.00;;;5.60;99.90;;;;;;5079676;28;20675;-76
2023/12/02 01:31:17;;;;;;;2.58;2.47;;;5.60;99.90;;;;;;5075564;28;20209;-75
2023/12/02 01:33:46;;;;;;;2.70;2.60;;;5.60;99.90;;;;;;5078212;28;20216;-76
2023/12/02 01:36:14;;;;;;;2.50;2.40;;;5.60;99.90;;;;;;5079830;28;20264;-77
2023/12/02 01:38:41;;;;;;;3.33;3.13;;;5.60;99.90;;;;;;5077813;28;20220;-76
2023/12/02 01:41:09;;;;;;;2.67;2.58;;;5.70;99.90;;;;;;5079440;28;20208;-75
2023/12/02 01:43:37;;;;;;;2.63;2.53;;;5.70;99.90;;;;;;5079798;28;20668;-75
2023/12/02 01:46:05;;;;;;;2.53;2.42;;;5.70;99.90;;;;;;5080199;28;20198;-77
2023/12/02 01:48:35;;;;;;;2.65;2.55;;;5.70;99.90;;;;;;5076260;28;20226;-76
2023/12/02 01:51:05;;;;;;;2.50;2.40;;;5.70;99.90;;;;;;5080582;28;20202;-77
2023/12/02 01:53:32;;;;;;;2.47;2.38;;;5.70;99.90;;;;;;5081674;28;20796;-76
2023/12/02 01:55:59;;;;;;;2.42;2.33;;;5.70;99.90;;;;;;5075248;28;20205;-76
2023/12/02 01:58:26;;;;;;;2.35;2.25;;;5.70;99.90;;;;;;5077454;28;20201;-77
2023/12/02 02:00:53;;;;;;;2.40;2.30;;;5.70;99.90;;;;;;5075589;28;20193;-76
2023/12/02 02:03:20;;;;;;;2.45;2.28;;;5.70;99.90;;;;;;5079360;28;20221;-76
2023/12/02 02:05:48;;;;;;;2.22;2.13;;;5.70;99.90;;;;;;5080420;28;20710;-75
2023/12/02 02:08:16;;;;;;;2.75;2.65;;;5.70;99.90;;;;;;5080366;28;20209;-76
2023/12/02 02:10:43;;;;;;;2.53;2.42;;;5.70;99.90;;;;;;5078512;28;20194;-75
2023/12/02 02:13:11;;;;;;;2.47;2.38;;;5.70;99.90;;;;;;5080110;28;20247;-78
2023/12/02 02:15:38;;;;;;;2.55;2.45;;;5.70;99.90;;;;;;5078154;28;20202;-75
2023/12/02 02:18:05;;;;;;;2.83;2.72;;;5.70;99.90;;;;;;5079106;28;20213;-76
2023/12/02 02:20:32;;;;;;;2.78;2.67;;;5.80;99.90;;;;;;5079924;28;20691;-76
2023/12/02 02:23:00;;;;;;;2.28;2.17;;;5.70;99.90;;;;;;5078063;28;20229;-77
2023/12/02 02:25:27;;;;;;;2.40;2.30;;;5.70;99.90;;;;;;5080519;28;20204;-75
2023/12/02 02:27:54;;;;;;;2.53;2.42;;;5.80;99.90;;;;;;5082368;28;20220;-75
2023/12/02 02:30:22;;;;;;;2.25;2.15;;;5.80;99.90;;;;;;5081737;28;20668;-76
2023/12/02 02:32:49;;;;;;;2.30;2.20;;;5.80;99.90;;;;;;5083231;28;20221;-76
2023/12/02 02:35:16;;;;;;;2.20;2.10;;;5.80;99.90;;;;;;5078766;28;20201;-76
2023/12/02 02:37:43;;;;;;;2.30;2.20;;;5.80;99.90;;;;;;5081059;28;20197;-76
2023/12/02 02:40:13;;;;;;;2.05;2.00;;;5.80;99.90;;;;;;5081120;28;20198;-78
2023/12/02 02:42:41;;;;;;;2.30;2.20;;;5.80;99.90;;;;;;5083979;28;20257;-76
2023/12/02 02:45:08;;;;;;;2.25;2.15;;;5.80;99.90;;;;;;5084009;28;20282;-76
2023/12/02 02:47:35;;;;;;;2.50;2.40;;;5.80;99.90;;;;;;5079507;28;20225;-77
2023/12/02 02:50:02;;;;;;;2.35;2.25;;;5.80;99.90;;;;;;5083143;28;20205;-76
2023/12/02 02:52:30;;;;;;;2.10;2.00;;;5.80;99.90;;;;;;5082431;28;20226;-76
2023/12/02 02:54:57;;;;;;;2.42;2.33;;;5.80;99.90;;;;;;5083367;28;20198;-75
2023/12/02 02:57:25;;;;;;;2.20;2.10;;;5.70;99.90;;;;;;5085682;28;20201;-76
2023/12/02 02:59:52;;;;;;;1.95;1.85;;;5.80;99.90;;;;;;5084923;28;20618;-77
2023/12/02 03:02:19;;;;;;;2.20;2.10;;;5.80;99.90;;;;;;5079944;28;20224;-75
2023/12/02 03:04:46;;;;;;;2.30;2.20;;;5.80;99.90;;;;;;5079568;28;20205;-76
2023/12/02 03:07:14;;;;;;;2.40;2.30;;;5.80;99.90;;;;;;5082886;28;20601;-75
2023/12/02 03:09:41;;;;;;;2.03;1.95;;;5.80;99.90;;;;;;5084811;28;20198;-77
2023/12/02 03:12:08;;;;;;;2.30;2.20;;;5.80;99.90;;;;;;5081344;28;20217;-75
2023/12/02 03:14:38;;;;;;;2.28;2.17;;;5.80;99.90;;;;;;5083280;28;20209;-77
2023/12/02 03:17:05;;;;;;;2.58;2.47;;;5.80;99.90;;;;;;5082659;28;20232;-76
2023/12/02 03:19:33;;;;;;;2.40;2.30;;;5.80;99.90;;;;;;5082662;28;20506;-76
2023/12/02 03:22:00;;;;;;;2.30;2.20;;;5.80;99.90;;;;;;5084176;28;20255;-76
2023/12/02 03:24:27;;;;;;;2.33;2.22;;;5.80;99.90;;;;;;5084044;28;20201;-76
2023/12/02 03:26:54;;;;;;;2.88;2.67;;;5.80;99.90;;;;;;5083983;28;20194;-77
2023/12/02 03:29:21;;;;;;;2.10;2.00;;;5.80;99.90;;;;;;5081909;28;20725;-75
2023/12/02 03:31:49;;;;;;;2.00;1.90;;;5.80;99.90;;;;;;5081343;28;20236;-77
2023/12/02 03:34:17;;;;;;;2.40;2.30;;;5.80;99.90;;;;;;5082607;28;20194;-76
2023/12/02 03:36:44;;;;;;;2.33;2.22;;;5.80;99.90;;;;;;5082633;28;20744;-76
2023/12/02 03:39:12;;;;;;;1.90;1.85;;;5.80;99.90;;;;;;5087025;28;20197;-76
2023/12/02 03:41:39;;;;;;;2.08;1.98;;;5.80;99.90;;;;;;5080186;28;20218;-75
2023/12/02 03:44:06;;;;;;;2.28;2.17;;;5.80;99.90;;;;;;5081659;28;20205;-76
2023/12/02 03:46:35;;;;;;;2.40;2.30;;;5.80;99.90;;;;;;5080784;28;20974;-76
2023/12/02 03:49:03;;;;;;;2.30;2.20;;;5.80;99.90;;;;;;5083692;28;20216;-76
2023/12/02 03:51:30;;;;;;;2.47;2.38;;;5.80;99.90;;;;;;5082242;28;20217;-75
2023/12/02 03:53:57;;;;;;;2.20;2.10;;;5.70;99.90;;;;;;5082184;28;20230;-77
2023/12/02 03:56:24;;;;;;;2.47;2.38;;;5.80;99.90;;;;;;5080706;28;20668;-76
2023/12/02 03:58:51;;;;;;;2.50;2.40;;;5.70;99.90;;;;;;5081567;28;20228;-77
2023/12/02 04:01:19;;;;;;;2.38;2.28;;;5.70;99.90;;;;;;5081814;28;20202;-76
2023/12/02 04:03:47;;;;;;;2.67;2.58;;;5.80;99.90;;;;;;5082847;28;20209;-75
2023/12/02 04:06:15;;;;;;;2.30;2.20;;;5.80;99.90;;;;;;5082415;28;20249;-77
2023/12/02 04:08:42;;;;;;;2.33;2.22;;;5.80;99.90;;;;;;5083550;28;20769;-77
2023/12/02 04:11:09;;;;;;;2.30;2.20;;;5.80;99.90;;;;;;5083399;28;20202;-76
2023/12/02 04:13:36;;;;;;;1.90;1.90;;;5.80;99.90;;;;;;5083263;28;20229;-77
2023/12/02 04:16:04;;;;;;;2.30;2.20;;;5.80;99.90;;;;;;5082102;28;20233;-75
2023/12/02 04:18:31;;;;;;;2.00;1.90;;;5.70;99.90;;;;;;5086050;28;20197;-75
2023/12/02 04:20:58;;;;;;;1.88;1.88;;;5.70;99.90;;;;;;5084538;28;20198;-76
2023/12/02 04:23:26;;;;;;;1.85;1.85;;;5.70;99.90;;;;;;5079286;28;20222;-76
2023/12/02 04:25:53;;;;;;;2.20;2.10;;;5.70;99.90;;;;;;5079506;28;20694;-77
2023/12/02 04:28:20;;;;;;;2.10;2.00;;;5.80;99.90;;;;;;5082438;28;20226;-77
2023/12/02 04:30:47;;;;;;;1.55;1.55;;;5.80;99.90;;;;;;5083371;28;20237;-76
2023/12/02 04:33:14;;;;;;;2.38;2.20;;;5.80;99.90;;;;;;5086945;28;20743;-76
2023/12/02 04:35:41;;;;;;;2.33;2.22;;;5.80;99.90;;;;;;5087065;28;20194;-77
2023/12/02 04:38:08;;;;;;;2.10;2.00;;;5.80;99.90;;;;;;5085163;28;20699;-78
2023/12/02 04:40:37;;;;;;;1.90;1.90;;;5.80;99.90;;;;;;5086430;28;20561;-76
2023/12/02 04:43:04;;;;;;;2.00;2.00;;;5.80;99.90;;;;;;5088071;28;20214;-78
2023/12/02 04:45:31;;;;;;;1.80;1.80;;;5.90;99.90;;;;;;5088000;28;20197;-76
2023/12/02 04:47:59;;;;;;;1.95;1.90;;;5.90;99.90;;;;;;5082578;28;20692;-78
2023/12/02 04:50:26;;;;;;;1.98;1.98;;;5.90;99.90;;;;;;5080054;28;20201;-76
2023/12/02 04:52:53;;;;;;;2.20;2.10;;;5.80;99.90;;;;;;5081026;28;20221;-76
2023/12/02 04:55:20;;;;;;;2.20;2.10;;;5.80;99.90;;;;;;5080665;28;20213;-76
2023/12/02 04:57:49;;;;;;;1.90;1.90;;;5.80;99.90;;;;;;5081313;28;20576;-77
2023/12/02 05:00:17;;;;;;;1.85;1.85;;;5.80;99.90;;;;;;5080246;28;20217;-75
2023/12/02 05:02:45;;;;;;;2.03;1.92;;;5.90;99.90;;;;;;5076508;28;20699;-77
2023/12/02 05:05:12;;;;;;;2.22;2.13;;;5.90;99.90;;;;;;5077957;28;20208;-76
2023/12/02 05:07:39;;;;;;;1.90;1.90;;;5.80;99.90;;;;;;5079308;28;20267;-76
2023/12/02 05:10:07;;;;;;;1.95;1.92;;;5.70;99.90;;;;;;5079110;28;20220;-75
2023/12/02 05:12:35;;;;;;;2.20;2.10;;;5.70;99.90;;;;;;5080006;28;20654;-76
2023/12/02 05:15:04;;;;;;;1.90;1.90;;;5.80;99.90;;;;;;5079992;28;20198;-76
2023/12/02 05:17:32;;;;;;;2.13;2.03;;;5.70;99.90;;;;;;5082780;28;20251;-74
2023/12/02 05:19:59;;;;;;;1.77;1.77;;;5.70;99.90;;;;;;5078727;28;20865;-77
2023/12/02 05:22:26;;;;;;;2.00;1.90;;;5.70;99.90;;;;;;5081061;28;20228;-75
2023/12/02 05:24:53;;;;;;;2.08;2.00;;;5.70;99.90;;;;;;5079498;28;20194;-75
2023/12/02 05:27:20;;;;;;;2.50;2.40;;;5.70;99.90;;;;;;5080497;28;20205;-76
2023/12/02 05:29:47;;;;;;;1.95;1.90;;;5.70;99.90;;;;;;5080150;28;20214;-76
2023/12/02 05:32:16;;;;;;;2.30;2.20;;;5.70;99.90;;;;;;5081607;28;20225;-75
2023/12/02 05:34:43;;;;;;;2.00;1.90;;;5.70;99.90;;;;;;5078099;28;20209;-77
2023/12/02 05:37:10;;;;;;;2.40;2.30;;;5.80;99.90;;;;;;5077479;28;20234;-75
2023/12/02 05:39:37;;;;;;;71.55;5.78;;;5.80;99.90;;;;;;5078511;28;20202;-75
2023/12/02 05:42:05;;;;;;;43.00;4.22;;;5.70;99.90;;;;;;5077619;28;20236;-77
2023/12/02 05:44:32;;;;;;;60.50;5.35;;;5.70;99.90;;;;;;5078284;28;20206;-76
2023/12/02 05:46:59;;;;;;;3.22;2.92;;;5.60;99.90;;;;;;5078081;28;20197;-76
2023/12/02 05:49:27;;;;;;;3.00;2.90;;;5.60;99.90;;;;;;5080742;28;20229;-77
2023/12/02 05:51:54;;;;;;;3.70;3.50;;;5.50;99.90;;;;;;5080684;28;20592;-75
2023/12/02 05:54:21;;;;;;;4.28;3.78;;;5.50;99.90;;;;;;5080903;28;20206;-76
2023/12/02 05:56:51;;;;;;;3.20;3.10;;;5.40;99.90;;;;;;5079928;28;20197;-76
2023/12/02 05:59:18;;;;;;;3.55;3.35;;;5.40;99.90;;;;;;5078742;28;20205;-75
2023/12/02 06:01:45;;;;;;;3.10;2.90;;;5.40;99.90;;;;;;5077852;28;20237;-76
2023/12/02 06:04:12;;;;;;;2.67;2.58;;;5.40;99.90;;;;;;5079093;28;20205;-76
2023/12/02 06:06:40;;;;;;;3.47;3.28;;;5.50;99.90;;;;;;5078804;28;20589;-76
2023/12/02 06:09:08;;;;;;;2.83;2.72;;;5.50;99.90;;;;;;5081083;28;20225;-76
2023/12/02 06:11:35;;;;;;;2.70;2.60;;;5.40;99.90;;;;;;5078620;28;20236;-76
2023/12/02 06:14:02;;;;;;;2.78;2.58;;;5.50;99.90;;;;;;5078008;28;20288;-76
2023/12/02 06:16:30;;;;;;;2.53;2.42;;;5.50;99.90;;;;;;5079440;28;20201;-77
2023/12/02 06:18:57;;;;;;;2.50;2.40;;;5.50;99.90;;;;;;5079306;28;20206;-76
2023/12/02 06:21:24;;;;;;;2.72;2.63;;;5.50;99.90;;;;;;5079912;28;20222;-77
2023/12/02 06:23:52;;;;;;;2.65;2.55;;;5.50;99.90;;;;;;5081463;28;20206;-77
2023/12/02 06:26:19;;;;;;;2.53;2.42;;;5.50;99.90;;;;;;5078178;28;20205;-76
2023/12/02 06:28:49;;;;;;;2.65;2.55;;;5.50;99.90;;;;;;5077904;28;20213;-76
2023/12/02 06:31:17;;;;;;;2.90;2.80;;;5.50;99.90;;;;;;5078114;28;20251;-76
2023/12/02 06:33:44;;;;;;;2.88;2.75;;;5.50;99.90;;;;;;5082078;28;20290;-76
2023/12/02 06:36:12;;;;;;;2.55;2.45;;;5.50;99.90;;;;;;5082067;28;20232;-76
2023/12/02 06:38:39;;;;;;;2.40;2.30;;;5.50;99.90;;;;;;5077995;28;20197;-75
2023/12/02 06:41:09;;;;;;;2.53;2.42;;;5.50;99.90;;;;;;5077138;28;20201;-76
2023/12/02 06:43:36;;;;;;;2.40;2.30;;;5.50;99.90;;;;;;5075115;28;20194;-75
2023/12/02 06:46:03;;;;;;;2.90;2.80;;;5.60;99.90;;;;;;5078892;28;20198;-76
2023/12/02 06:48:30;;;;;;;2.30;2.20;;;5.60;99.90;;;;;;5079740;28;20248;-77
2023/12/02 06:50:57;;;;;;;2.40;2.30;;;5.60;99.90;;;;;;5081227;28;20202;-75
2023/12/02 06:53:24;;;;;;;2.53;2.42;;;5.60;99.90;;;;;;5078177;28;20224;-77
2023/12/02 06:55:51;;;;;;;2.70;2.60;;;5.60;99.90;;;;;;5077267;28;20202;-75
2023/12/02 06:58:20;;;;;;;2.33;2.22;;;5.50;99.90;;;;;;5080118;28;20204;-75
2023/12/02 07:00:47;;;;;;;2.80;2.70;;;5.50;99.90;;;;;;5080376;28;20232;-76
2023/12/02 07:03:14;;;;;;;2.80;2.70;;;5.50;99.90;;;;;;5082230;28;20225;-76
2023/12/02 07:05:41;;;;;;;3.53;3.33;;;5.50;99.90;;;;;;5074823;28;20209;-76
2023/12/02 07:08:08;;;;;;;5.07;4.78;;;5.50;99.90;;;;;;5081720;28;20196;-76
2023/12/02 07:10:35;;;;;;;3.97;3.67;;;5.50;99.90;;;;;;5080377;28;20278;-77
2023/12/02 07:13:02;;;;;;;4.20;3.90;;;5.50;99.90;;;;;;5080103;28;20229;-77
2023/12/02 07:15:31;;;;;;;3.00;2.90;;;5.50;99.90;;;;;;5083830;28;20198;-73
2023/12/02 07:17:58;;;;;;;3.97;3.78;;;5.40;99.90;;;;;;5084126;28;20214;-75
2023/12/02 07:20:25;;;;;;;3.45;3.30;;;5.40;99.90;;;;;;5083241;28;20198;-76
2023/12/02 07:22:52;;;;;;;3.55;3.35;;;5.50;99.90;;;;;;5079244;28;20233;-77
2023/12/02 07:25:19;;;;;;;3.30;3.15;;;5.50;99.90;;;;;;5082730;28;20212;-75
2023/12/02 07:27:46;;;;;;;3.25;3.15;;;5.60;99.90;;;;;;5079971;28;20201;-76
2023/12/02 07:30:14;;;;;;;2.83;2.72;;;5.60;99.90;;;;;;5079695;28;20231;-77
2023/12/02 07:32:42;;;;;;;2.53;2.40;;;5.60;99.90;;;;;;5082715;28;20720;-76
2023/12/02 07:35:09;;;;;;;2.63;2.53;;;5.60;99.90;;;;;;5083435;28;20212;-76
2023/12/02 07:37:36;;;;;;;3.20;3.00;;;5.60;99.90;;;;;;5082094;28;20198;-76
2023/12/02 07:40:04;;;;;;;2.88;2.78;;;5.60;99.90;;;;;;5080536;28;20228;-75
2023/12/02 07:42:31;;;;;;;3.20;3.00;;;5.60;99.90;;;;;;5083689;28;20217;-76
2023/12/02 07:44:58;;;;;;;3.35;3.15;;;5.60;99.90;;;;;;5082389;28;20205;-76
2023/12/02 07:47:26;;;;;;;3.25;3.05;;;5.50;99.90;;;;;;5080977;28;20197;-77
2023/12/02 07:49:55;;;;;;;4.00;3.70;;;5.60;99.90;;;;;;5076013;28;20221;-76
2023/12/02 07:52:22;;;;;;;3.05;2.85;;;5.60;99.90;;;;;;5077987;28;20791;-78
2023/12/02 07:54:49;;;;;;;3.72;3.47;;;5.60;99.90;;;;;;5081228;28;20252;-76
2023/12/02 07:57:16;;;;;;;5.07;4.68;;;5.60;99.90;;;;;;5081385;28;20244;-77
2023/12/02 07:59:43;;;;;;;16.02;14.43;;;5.60;99.90;;;;;;5078472;28;20189;-77
2023/12/02 08:02:10;;;;;;;9.73;8.82;;;5.60;99.90;;;;;;5074651;28;20878;-77
2023/12/02 08:04:37;;;;;;;7.30;6.68;;;5.70;99.90;;;;;;5076645;28;20205;-76
2023/12/02 08:07:05;;;;;;;5.38;4.97;;;5.70;99.90;;;;;;5076796;28;20432;-76
2023/12/02 08:09:32;;;;;;;4.63;4.32;;;5.80;99.90;;;;;;5079274;28;20217;-78
2023/12/02 08:11:59;;;;;;;4.18;3.88;;;5.80;99.90;;;;;;5079650;28;20770;-76
2023/12/02 08:14:26;;;;;;;3.47;3.28;;;5.80;99.90;;;;;;5078696;28;20259;-77
2023/12/02 08:16:54;;;;;;;3.30;3.10;;;5.80;99.90;;;;;;5078998;28;20206;-76
2023/12/02 08:19:21;;;;;;;2.90;2.75;;;5.80;99.90;;;;;;5079928;28;20198;-77
2023/12/02 08:21:49;;;;;;;2.78;2.67;;;5.80;99.90;;;;;;5076498;28;20217;-76
2023/12/02 08:24:17;;;;;;;2.75;2.65;;;5.90;99.90;;;;;;5078063;28;20213;-76
2023/12/02 08:26:47;;;;;;;2.60;2.50;;;5.90;99.90;;;;;;5075655;28;20228;-76
2023/12/02 08:29:14;;;;;;;2.40;2.30;;;5.90;99.90;;;;;;5077042;28;20245;-78
2023/12/02 08:31:41;;;;;;;2.30;2.20;;;5.90;99.90;;;;;;5082825;28;20616;-75
2023/12/02 08:34:08;;;;;;;2.30;2.20;;;5.80;99.90;;;;;;5077662;28;20202;-76
2023/12/02 08:36:35;;;;;;;2.40;2.30;;;5.80;99.90;;;;;;5075558;28;20194;-76
2023/12/02 08:39:04;;;;;;;2.30;2.20;;;5.80;99.90;;;;;;5079440;28;20889;-77
2023/12/02 08:41:33;;;;;;;2.55;2.45;;;5.80;99.90;;;;;;5075626;28;20218;-76
2023/12/02 08:44:00;;;;;;;3.28;3.08;;;5.80;99.90;;;;;;5078680;28;20202;-74
2023/12/02 08:46:27;;;;;;;3.33;3.13;;;5.80;99.90;;;;;;5076606;28;20763;-75
2023/12/02 08:48:54;;;;;;;2.97;2.88;;;5.80;99.90;;;;;;5078902;28;20241;-77
2023/12/02 08:51:22;;;;;;;3.03;2.83;;;5.80;99.90;;;;;;5080578;28;20750;-78
2023/12/02 08:53:52;;;;;;;2.92;2.83;;;5.80;99.90;;;;;;5088849;28;20229;-78
2023/12/02 08:56:20;;;;;;;2.53;2.42;;;5.80;99.90;;;;;;5080653;28;20198;-79
2023/12/02 08:58:48;;;;;;;2.40;2.30;;;5.90;99.90;;;;;;5081274;28;20208;-77
2023/12/02 09:01:15;;;;;;;2.13;2.03;;;6.00;99.90;;;;;;5076920;28;20211;-76
2023/12/02 09:03:43;;;;;;;3.22;2.92;;;6.00;99.90;;;;;;5078728;28;20198;-79
2023/12/02 09:06:11;;;;;;;2.67;2.33;;;6.00;99.90;;;;;;5078598;28;20224;-77
2023/12/02 09:08:38;;;;;;;2.85;2.65;;;6.00;99.90;;;;;;5078686;28;20676;-76
2023/12/02 09:11:05;;;;;;;2.90;2.70;;;6.00;99.90;;;;;;5079274;28;20209;-78
2023/12/02 09:13:43;;;;;;;2.60;2.50;;;6.00;99.90;;;;;;5078510;28;20288;-78
2023/12/02 09:16:16;;;;;;;2.90;2.80;;;6.00;99.90;;;;;;5073147;28;20254;-77
2023/12/02 09:18:43;;;;;;;2.33;2.22;;;6.00;99.90;;;;;;5074471;28;20228;-77
2023/12/02 09:21:38;;;;;;;2.67;2.58;;;6.00;99.90;;;;;;5075411;28;20575;-77
2023/12/02 09:24:26;;;;;;;2.58;2.47;;;6.00;99.90;;;;;;5076985;28;20694;-79
2023/12/02 09:26:53;;;;;;;3.40;3.20;;;6.00;99.90;;;;;;5070629;28;20195;-76
2023/12/02 09:29:26;;;;;;;2.80;2.70;;;6.00;99.90;;;;;;5072357;28;20323;-77
2023/12/02 09:31:55;;;;;;;3.22;3.03;;;6.00;99.90;;;;;;5078393;28;20213;-79
2023/12/02 09:34:56;;;;;;;3.40;3.20;;;6.00;99.90;;;;;;5079620;28;20202;-77
2023/12/02 09:37:55;;;;;;;4.35;4.05;;;6.60;99.90;;;;;;5084658;28;20200;-76
2023/12/02 09:40:47;;;;;;;3.90;3.55;;;7.20;99.90;;;;;;5078519;28;20202;-77
2023/12/02 09:43:28;;;;;;;3.75;3.45;;;7.30;99.90;;;;;;5074465;28;20276;-77
2023/12/02 09:46:20;;;;;;;3.22;3.00;;;7.00;99.90;;;;;;5071255;28;20205;-77
2023/12/02 09:49:04;;;;;;;3.53;3.22;;;6.70;99.90;;;;;;5074175;28;20306;-77
2023/12/02 09:51:50;;;;;;;3.35;3.10;;;6.50;99.90;;;;;;5076333;28;20201;-79
2023/12/02 09:54:28;;;;;;;3.65;3.38;;;6.40;99.90;;;;;;5076163;28;20666;-79
2023/12/02 09:57:03;;;;;;;3.47;3.28;;;6.40;99.90;;;;;;5074719;28;20202;-77
2023/12/02 09:59:40;;;;;;;3.53;3.33;;;6.40;99.90;;;;;;5071832;28;20201;-79
2023/12/02 10:02:23;;;;;;;3.67;3.40;;;6.40;99.90;;;;;;5076650;28;20217;-79
2023/12/02 10:05:01;;;;;;;3.15;2.95;;;6.50;99.90;;;;;;5030761;28;20229;-76
2023/12/02 10:07:38;;;;;;;6.07;5.47;;;6.50;99.90;;;;;;5030541;28;20440;-78
2023/12/02 10:10:09;;;;;;;5.78;5.18;;;6.50;99.90;;;;;;5032152;28;20288;-77
2023/12/02 10:12:46;;;;;;;3.78;3.47;;;6.50;99.90;;;;;;5032568;28;20259;-77
2023/12/02 10:15:13;;;;;;;3.40;3.20;;;6.60;99.90;;;;;;5035312;28;20280;-77
2023/12/02 10:17:53;;;;;;;3.20;3.00;;;6.60;99.90;;;;;;5033020;28;20202;-78
2023/12/02 10:20:28;;;;;;;2.78;2.67;;;6.70;99.90;;;;;;5031034;28;20599;-77
2023/12/02 10:23:04;;;;;;;2.90;2.80;;;6.60;99.90;;;;;;5029968;28;20230;-78
2023/12/02 10:25:39;;;;;;;2.50;2.40;;;6.60;99.90;;;;;;5030801;28;20211;-78
2023/12/02 10:28:13;;;;;;;2.72;2.63;;;6.50;99.90;;;;;;5029399;28;20194;-78
2023/12/02 10:30:47;;;;;;;2.42;2.33;;;6.50;99.90;;;;;;5030417;28;20803;-77
2023/12/02 10:33:27;;;;;;;2.60;2.50;;;6.50;99.90;;;;;;5029526;28;20280;-77
2023/12/02 10:35:58;;;;;;;2.67;2.58;;;6.40;99.90;;;;;;5032809;28;20234;-77
2023/12/02 10:38:33;;;;;;;2.90;2.70;;;6.30;99.90;;;;;;5028069;28;24178;-78
2023/12/02 10:41:11;;;;;;;2.60;2.50;;;6.30;99.90;;;;;;5030529;28;20769;-76
2023/12/02 10:43:40;;;;;;;2.83;2.70;;;6.30;99.90;;;;;;5027067;28;20237;-78
2023/12/02 10:46:08;;;;;;;2.70;2.60;;;6.30;99.90;;;;;;5032664;28;20207;-76
2023/12/02 10:48:37;;;;;;;2.60;2.50;;;6.40;99.90;;;;;;5031942;28;20307;-78
2023/12/02 10:51:09;;;;;;;2.72;2.63;;;6.30;99.90;;;;;;5042052;28;20721;-78
2023/12/02 10:53:38;;;;;;;3.10;3.00;;;6.40;99.90;;;;;;5030661;28;20241;-77
2023/12/02 10:56:15;;;;;;;3.20;3.00;;;6.40;99.90;;;;;;5036625;28;20282;-78
2023/12/02 10:58:44;;;;;;;2.65;2.55;;;6.40;99.90;;;;;;5034998;28;20716;-78
2023/12/02 11:01:11;;;;;;;2.80;2.60;;;6.30;99.90;;;;;;5041514;28;20195;-78
2023/12/02 11:03:49;;;;;;;2.70;2.50;;;6.30;99.90;;;;;;5033953;28;21417;-76
2023/12/02 11:06:26;;;;;;;2.50;2.40;;;6.30;99.90;;;;;;5035397;28;20229;-76
2023/12/02 11:08:57;;;;;;;2.50;2.40;;;6.30;99.90;;;;;;5033415;28;20203;-77
2023/12/02 11:11:47;;;;;;;2.10;2.00;;;6.30;99.90;;;;;;5032855;28;20225;-77
2023/12/02 11:14:17;;;;;;;2.60;2.40;;;6.30;99.90;;;;;;5033948;28;20470;-77
2023/12/02 11:17:00;;;;;;;3.70;2.40;;;6.30;99.90;;;;;;5037865;28;20226;-77
2023/12/02 11:19:42;;;;;;;2.50;2.40;;;6.30;99.90;;;;;;5035489;28;20732;-78
2023/12/02 11:22:42;;;;;;;2.30;2.20;;;6.30;99.90;;;;;;5036015;28;20230;-76
2023/12/02 11:25:28;;;;;;;2.53;2.42;;;6.30;99.90;;;;;;5015056;28;20734;-78
2023/12/02 11:28:00;;;;;;;2.20;2.10;;;6.20;99.90;;;;;;5034811;28;20207;-76
2023/12/02 11:30:46;;;;;;;2.50;2.40;;;6.20;99.90;;;;;;5037739;28;20217;-77
2023/12/02 11:33:24;;;;;;;2.30;2.20;;;6.10;99.90;;;;;;5038880;28;20897;-79
2023/12/02 11:36:04;;;;;;;2.28;2.17;;;6.10;99.90;;;;;;5037245;28;20214;-78
2023/12/02 11:38:33;;;;;;;2.60;2.50;;;6.10;99.90;;;;;;5037795;28;20678;-77
2023/12/02 11:41:17;;;;;;;2.45;2.35;;;6.10;99.90;;;;;;5035300;28;20251;-78
2023/12/02 11:43:58;;;;;;;2.63;2.53;;;6.10;99.90;;;;;;5036602;28;20206;-77
2023/12/02 11:46:31;;;;;;;2.45;2.35;;;6.00;99.90;;;;;;5037744;28;20238;-77
2023/12/02 11:49:11;;;;;;;2.40;2.30;;;6.00;99.90;;;;;;5037196;28;20199;-77
2023/12/02 11:51:53;;;;;;;2.28;2.17;;;6.00;99.90;;;;;;5036911;28;20235;-76
2023/12/02 11:54:35;;;;;;;5.32;4.72;;;6.00;99.90;;;;;;5033904;28;20199;-77
2023/12/02 11:57:29;;;;;;;3.63;3.35;;;5.90;99.90;;;;;;5037759;28;20669;-77
2023/12/02 12:00:09;;;;;;;2.92;2.72;;;5.90;99.90;;;;;;5038493;28;20238;-78
2023/12/02 12:02:58;;;;;;;3.30;3.10;;;5.90;99.90;;;;;;5038656;28;20221;-77
2023/12/02 12:05:37;;;;;;;2.70;2.50;;;5.90;99.90;;;;;;5041129;28;20230;-77
2023/12/02 12:08:12;;;;;;;3.58;3.28;;;6.00;99.90;;;;;;5036499;28;20238;-79
2023/12/02 12:10:41;;;;;;;3.42;3.17;;;6.00;99.90;;;;;;5037215;28;20663;-79
2023/12/02 12:13:11;;;;;;;3.00;2.88;;;6.00;99.90;;;;;;5041068;28;20222;-78
2023/12/02 12:15:39;;;;;;;3.00;2.80;;;6.00;99.90;;;;;;5041777;28;20876;-76
2023/12/02 12:18:06;;;;;;;3.20;3.00;;;6.00;99.90;;;;;;5040012;28;20225;-78
2023/12/02 12:20:33;;;;;;;3.03;2.83;;;6.00;99.90;;;;;;5036710;28;20218;-77
2023/12/02 12:23:01;;;;;;;3.83;3.53;;;6.00;99.90;;;;;;5037242;28;20222;-78
2023/12/02 12:25:30;;;;;;;4.45;4.07;;;6.10;99.90;;;;;;5038032;28;20309;-76
2023/12/02 12:28:03;;;;;;;2.83;2.72;;;6.00;99.90;;;;;;5037607;28;20202;-77
2023/12/02 12:30:43;;;;;;;3.20;3.00;;;6.00;99.90;;;;;;5040956;28;20223;-77
2023/12/02 12:33:13;;;;;;;4.63;4.22;;;6.00;99.90;;;;;;5036491;28;20231;-76
2023/12/02 12:35:40;;;;;;;3.60;3.30;;;6.00;99.90;;;;;;5032464;28;20226;-76
2023/12/02 12:38:09;;;;;;;4.53;4.13;;;6.10;99.90;;;;;;5035583;28;20516;-77
2023/12/02 12:40:37;;;;;;;6.95;4.95;;;6.20;99.90;;;;;;5036662;28;20246;-77
2023/12/02 12:43:08;;;;;;;4.45;4.00;;;6.30;99.90;;;;;;5037424;28;20215;-78
2023/12/02 12:45:35;;;;;;;3.90;3.47;;;6.30;99.90;;;;;;5036710;28;20229;-76
2023/12/02 12:48:05;;;;;;;3.38;2.95;;;6.30;99.90;;;;;;5039407;28;20638;-76
2023/12/02 12:50:32;;;;;;;4.20;3.80;;;6.40;99.90;;;;;;5033967;28;20629;-76
2023/12/02 12:53:05;;;;;;;4.32;3.40;;;6.50;99.90;;;;;;5038993;28;20246;-77
2023/12/02 12:55:37;;;;;;;3.75;3.45;;;6.50;99.90;;;;;;5032140;28;20215;-78
2023/12/02 12:58:08;;;;;;;4.15;3.85;;;6.60;99.90;;;;;;5034356;28;20458;-77
2023/12/02 13:00:39;;;;;;;5.05;4.70;;;6.50;99.90;;;;;;5032370;28;20260;-78
2023/12/02 13:03:26;;;;;;;5.78;4.97;;;6.50;99.90;;;;;;5033153;28;20509;-77
2023/12/02 13:06:05;;;;;;;4.32;4.03;;;6.50;99.90;;;;;;5031468;28;20660;-77
2023/12/02 13:08:34;;;;;;;4.07;3.67;;;6.60;99.90;;;;;;5030544;28;20199;-77
2023/12/02 13:11:07;;;;;;;3.08;2.88;;;6.50;99.90;;;;;;5034005;28;20259;-77